sensor_id;sensor_type;location;lat;lon;timestamp;pressure;altitude;pressure_sealevel;temperature;humidity
20860;BME280;10590;48.154;11.514;2023-02-28T00:04:39;96111.66;;;-2.80;68.51
20860;BME280;10590;48.154;11.514;2023-02-28T00:09:42;96113.03;;;-2.78;68.58
20860;BME280;10590;48.154;11.514;2023-02-28T00:14:43;96109.47;;;-2.83;68.75
20860;BME280;10590;48.154;11.514;2023-02-28T00:19:45;96098.97;;;-2.95;69.09
20860;BME280;10590;48.154;11.514;2023-02-28T00:24:48;96100.44;;;-2.99;68.99
20860;BME280;10590;48.154;11.514;2023-02-28T00:29:50;96105.06;;;-3.19;69.48
20860;BME280;10590;48.154;11.514;2023-02-28T00:34:51;96101.81;;;-2.97;69.83
20860;BME280;10590;48.154;11.514;2023-02-28T00:39:57;96096.94;;;-3.11;70.26
20860;BME280;10590;48.154;11.514;2023-02-28T00:44:58;96094.25;;;-3.05;69.58
20860;BME280;10590;48.154;11.514;2023-02-28T00:50:00;96090.06;;;-3.06;69.95
20860;BME280;10590;48.154;11.514;2023-02-28T00:55:04;96104.25;;;-3.20;70.54
20860;BME280;10590;48.154;11.514;2023-02-28T01:00:07;96100.34;;;-3.11;70.28
20860;BME280;10590;48.154;11.514;2023-02-28T01:05:09;96097.53;;;-3.09;70.45
20860;BME280;10590;48.154;11.514;2023-02-28T01:10:12;96099.41;;;-3.35;69.98
20860;BME280;10590;48.154;11.514;2023-02-28T01:15:14;96075.63;;;-3.27;70.66
20860;BME280;10590;48.154;11.514;2023-02-28T01:20:16;96073.03;;;-3.27;70.25
20860;BME280;10590;48.154;11.514;2023-02-28T01:25:19;96093.31;;;-3.29;70.96
20860;BME280;10590;48.154;11.514;2023-02-28T01:30:21;96086.88;;;-3.26;71.36
20860;BME280;10590;48.154;11.514;2023-02-28T01:35:22;96079.84;;;-3.26;70.45
20860;BME280;10590;48.154;11.514;2023-02-28T01:40:25;96079.53;;;-3.36;71.62
20860;BME280;10590;48.154;11.514;2023-02-28T01:45:29;96083.00;;;-3.42;71.03
20860;BME280;10590;48.154;11.514;2023-02-28T01:50:33;96069.19;;;-3.24;70.65
20860;BME280;10590;48.154;11.514;2023-02-28T01:55:37;96073.81;;;-3.26;71.21
20860;BME280;10590;48.154;11.514;2023-02-28T02:00:40;96064.84;;;-3.55;71.19
20860;BME280;10590;48.154;11.514;2023-02-28T02:05:42;96062.72;;;-3.40;71.32
20860;BME280;10590;48.154;11.514;2023-02-28T02:10:50;96064.16;;;-3.44;71.18
20860;BME280;10590;48.154;11.514;2023-02-28T02:16:02;96065.97;;;-3.44;71.61
20860;BME280;10590;48.154;11.514;2023-02-28T02:21:24;96054.97;;;-3.46;71.56
20860;BME280;10590;48.154;11.514;2023-02-28T02:26:52;96056.56;;;-3.45;72.06
20860;BME280;10590;48.154;11.514;2023-02-28T02:37:49;96051.66;;;-3.60;72.39
20860;BME280;10590;48.154;11.514;2023-02-28T02:42:55;96048.63;;;-3.57;72.60
20860;BME280;10590;48.154;11.514;2023-02-28T02:47:59;96050.06;;;-3.61;72.82
20860;BME280;10590;48.154;11.514;2023-02-28T02:53:05;96043.28;;;-3.87;74.02
20860;BME280;10590;48.154;11.514;2023-02-28T02:58:10;96047.88;;;-3.64;73.89
20860;BME280;10590;48.154;11.514;2023-02-28T03:03:16;96042.97;;;-3.54;72.75
20860;BME280;10590;48.154;11.514;2023-02-28T03:08:22;96049.75;;;-3.71;74.49
20860;BME280;10590;48.154;11.514;2023-02-28T03:13:50;96042.88;;;-3.66;73.43
20860;BME280;10590;48.154;11.514;2023-02-28T03:18:58;96040.94;;;-3.70;73.79
20860;BME280;10590;48.154;11.514;2023-02-28T03:24:08;96046.72;;;-3.68;74.81
20860;BME280;10590;48.154;11.514;2023-02-28T03:29:15;96052.66;;;-3.79;75.13
20860;BME280;10590;48.154;11.514;2023-02-28T03:34:29;96049.75;;;-3.71;74.16
20860;BME280;10590;48.154;11.514;2023-02-28T03:39:37;96037.53;;;-3.71;74.72
20860;BME280;10590;48.154;11.514;2023-02-28T03:44:42;96047.75;;;-3.69;75.01
20860;BME280;10590;48.154;11.514;2023-02-28T03:49:49;96050.06;;;-3.61;74.30
20860;BME280;10590;48.154;11.514;2023-02-28T03:54:55;96055.88;;;-3.59;74.71
20860;BME280;10590;48.154;11.514;2023-02-28T04:00:04;96054.75;;;-3.70;74.90
20860;BME280;10590;48.154;11.514;2023-02-28T04:05:08;96053.38;;;-3.72;75.20
20860;BME280;10590;48.154;11.514;2023-02-28T04:10:12;96069.75;;;-3.65;75.86
20860;BME280;10590;48.154;11.514;2023-02-28T04:15:14;96078.59;;;-3.66;75.15
20860;BME280;10590;48.154;11.514;2023-02-28T04:20:16;96083.69;;;-3.53;75.32
20860;BME280;10590;48.154;11.514;2023-02-28T04:25:19;96097.50;;;-3.46;75.03
20860;BME280;10590;48.154;11.514;2023-02-28T04:30:21;96098.31;;;-3.45;74.87
20860;BME280;10590;48.154;11.514;2023-02-28T04:35:22;96082.84;;;-3.47;74.47
20860;BME280;10590;48.154;11.514;2023-02-28T04:40:25;96082.44;;;-3.26;74.30
20860;BME280;10590;48.154;11.514;2023-02-28T04:45:27;96074.19;;;-3.23;74.13
20860;BME280;10590;48.154;11.514;2023-02-28T04:50:30;96084.19;;;-3.19;74.75
20860;BME280;10590;48.154;11.514;2023-02-28T04:55:33;96078.97;;;-3.19;74.86
20860;BME280;10590;48.154;11.514;2023-02-28T05:00:35;96090.28;;;-3.07;74.40
20860;BME280;10590;48.154;11.514;2023-02-28T05:05:36;96096.50;;;-3.08;74.12
20860;BME280;10590;48.154;11.514;2023-02-28T05:10:39;96097.25;;;-3.01;74.20
20860;BME280;10590;48.154;11.514;2023-02-28T05:15:41;96103.69;;;-3.04;74.16
20860;BME280;10590;48.154;11.514;2023-02-28T05:20:42;96101.09;;;-3.04;74.61
20860;BME280;10590;48.154;11.514;2023-02-28T05:25:45;96104.19;;;-2.95;74.32
20860;BME280;10590;48.154;11.514;2023-02-28T05:30:47;96111.72;;;-2.87;74.19
20860;BME280;10590;48.154;11.514;2023-02-28T05:35:49;96100.84;;;-2.84;73.38
20860;BME280;10590;48.154;11.514;2023-02-28T05:40:52;96110.56;;;-2.91;73.95
20860;BME280;10590;48.154;11.514;2023-02-28T05:45:54;96110.47;;;-2.66;73.33
20860;BME280;10590;48.154;11.514;2023-02-28T05:50:57;96114.19;;;-3.10;74.48
20860;BME280;10590;48.154;11.514;2023-02-28T05:56:00;96116.44;;;-2.77;74.90
20860;BME280;10590;48.154;11.514;2023-02-28T06:01:20;96115.22;;;-3.11;74.61
20860;BME280;10590;48.154;11.514;2023-02-28T06:06:22;96113.03;;;-3.14;74.16
20860;BME280;10590;48.154;11.514;2023-02-28T06:11:26;96126.53;;;-2.99;75.29
20860;BME280;10590;48.154;11.514;2023-02-28T06:16:29;96130.88;;;-2.57;77.12
20860;BME280;10590;48.154;11.514;2023-02-28T06:21:31;96139.50;;;-2.38;76.45
20860;BME280;10590;48.154;11.514;2023-02-28T06:26:34;96144.44;;;-2.84;73.75
20860;BME280;10590;48.154;11.514;2023-02-28T06:31:36;96143.78;;;-2.98;73.69
20860;BME280;10590;48.154;11.514;2023-02-28T06:36:38;96135.66;;;-2.90;73.88
20860;BME280;10590;48.154;11.514;2023-02-28T06:41:41;96141.81;;;-3.03;74.38
20860;BME280;10590;48.154;11.514;2023-02-28T06:46:46;96151.41;;;-2.97;74.19
20860;BME280;10590;48.154;11.514;2023-02-28T06:51:48;96165.41;;;-2.91;72.93
20860;BME280;10590;48.154;11.514;2023-02-28T06:56:51;96163.81;;;-2.92;73.80
20860;BME280;10590;48.154;11.514;2023-02-28T07:01:54;96168.00;;;-2.73;73.18
20860;BME280;10590;48.154;11.514;2023-02-28T07:06:56;96171.31;;;-2.59;72.37
20860;BME280;10590;48.154;11.514;2023-02-28T07:11:59;96170.47;;;-2.78;72.47
20860;BME280;10590;48.154;11.514;2023-02-28T07:17:01;96181.59;;;-2.64;72.18
20860;BME280;10590;48.154;11.514;2023-02-28T07:22:02;96184.81;;;-3.05;74.07
20860;BME280;10590;48.154;11.514;2023-02-28T07:27:05;96179.09;;;-2.96;73.14
20860;BME280;10590;48.154;11.514;2023-02-28T07:32:07;96176.56;;;-2.84;72.45
20860;BME280;10590;48.154;11.514;2023-02-28T07:37:09;96185.44;;;-2.67;72.31
20860;BME280;10590;48.154;11.514;2023-02-28T07:42:12;96178.34;;;-2.60;72.60
20860;BME280;10590;48.154;11.514;2023-02-28T07:47:13;96186.28;;;-2.73;71.99
20860;BME280;10590;48.154;11.514;2023-02-28T07:52:15;96185.13;;;-2.77;72.04
20860;BME280;10590;48.154;11.514;2023-02-28T07:57:18;96187.81;;;-2.65;71.89
20860;BME280;10590;48.154;11.514;2023-02-28T08:02:20;96178.13;;;-2.58;72.00
20860;BME280;10590;48.154;11.514;2023-02-28T08:07:21;96185.13;;;-2.22;72.95
20860;BME280;10590;48.154;11.514;2023-02-28T08:12:24;96184.16;;;-2.58;71.24
20860;BME280;10590;48.154;11.514;2023-02-28T08:17:26;96196.25;;;-1.97;70.81
20860;BME280;10590;48.154;11.514;2023-02-28T08:22:28;96197.53;;;-2.17;69.64
20860;BME280;10590;48.154;11.514;2023-02-28T08:27:31;96200.63;;;-2.09;70.05
20860;BME280;10590;48.154;11.514;2023-02-28T08:32:33;96207.75;;;-2.16;69.55
20860;BME280;10590;48.154;11.514;2023-02-28T08:37:34;96207.75;;;-2.16;70.14
20860;BME280;10590;48.154;11.514;2023-02-28T08:42:38;96215.19;;;-2.31;70.51
20860;BME280;10590;48.154;11.514;2023-02-28T08:47:39;96227.84;;;-1.98;69.30
20860;BME280;10590;48.154;11.514;2023-02-28T08:52:42;96231.97;;;-1.90;69.47
20860;BME280;10590;48.154;11.514;2023-02-28T08:57:45;96226.22;;;-1.81;69.66
20860;BME280;10590;48.154;11.514;2023-02-28T09:02:47;96231.50;;;-1.69;68.58
20860;BME280;10590;48.154;11.514;2023-02-28T09:07:49;96212.25;;;-2.05;68.88
20860;BME280;10590;48.154;11.514;2023-02-28T09:12:52;96225.03;;;-2.15;69.50
20860;BME280;10590;48.154;11.514;2023-02-28T09:17:53;96229.03;;;-1.64;67.76
20860;BME280;10590;48.154;11.514;2023-02-28T09:22:55;96233.97;;;-1.74;67.77
20860;BME280;10590;48.154;11.514;2023-02-28T09:27:58;96230.59;;;-1.93;68.19
20860;BME280;10590;48.154;11.514;2023-02-28T09:32:59;96237.41;;;-2.22;69.44
20860;BME280;10590;48.154;11.514;2023-02-28T09:38:01;96244.84;;;-2.07;69.26
20860;BME280;10590;48.154;11.514;2023-02-28T09:43:05;96249.56;;;-1.98;68.43
20860;BME280;10590;48.154;11.514;2023-02-28T09:48:13;96256.78;;;-1.63;67.53
20860;BME280;10590;48.154;11.514;2023-02-28T09:53:19;96266.88;;;-1.37;66.01
20860;BME280;10590;48.154;11.514;2023-02-28T09:58:30;96265.06;;;-1.66;67.76
20860;BME280;10590;48.154;11.514;2023-02-28T10:03:36;96270.28;;;-0.59;64.17
20860;BME280;10590;48.154;11.514;2023-02-28T10:08:45;96273.78;;;-0.89;64.68
20860;BME280;10590;48.154;11.514;2023-02-28T10:13:56;96271.53;;;-0.85;64.30
20860;BME280;10590;48.154;11.514;2023-02-28T10:19:05;96272.56;;;-0.63;64.96
20860;BME280;10590;48.154;11.514;2023-02-28T10:24:19;96282.00;;;0.25;61.10
20860;BME280;10590;48.154;11.514;2023-02-28T10:29:23;96274.47;;;0.28;61.24
20860;BME280;10590;48.154;11.514;2023-02-28T10:34:24;96278.00;;;-0.18;63.25
20860;BME280;10590;48.154;11.514;2023-02-28T10:39:37;96282.16;;;0.18;61.59
20860;BME280;10590;48.154;11.514;2023-02-28T10:44:40;96290.09;;;0.35;61.25
20860;BME280;10590;48.154;11.514;2023-02-28T10:49:46;96293.50;;;0.92;59.87
20860;BME280;10590;48.154;11.514;2023-02-28T10:54:48;96296.94;;;-0.27;61.65
20860;BME280;10590;48.154;11.514;2023-02-28T10:59:53;96292.44;;;-0.04;61.84
20860;BME280;10590;48.154;11.514;2023-02-28T11:05:27;96288.47;;;0.06;61.03
20860;BME280;10590;48.154;11.514;2023-02-28T11:10:31;96302.16;;;0.93;59.29
20860;BME280;10590;48.154;11.514;2023-02-28T11:15:36;96301.34;;;-0.05;60.78
20860;BME280;10590;48.154;11.514;2023-02-28T11:20:38;96302.84;;;0.43;59.95
20860;BME280;10590;48.154;11.514;2023-02-28T11:25:47;96292.63;;;1.20;57.94
20860;BME280;10590;48.154;11.514;2023-02-28T11:31:01;96287.91;;;1.39;57.05
20860;BME280;10590;48.154;11.514;2023-02-28T11:36:11;96276.31;;;4.67;50.09
20860;BME280;10590;48.154;11.514;2023-02-28T11:41:23;96281.84;;;2.38;52.67
20860;BME280;10590;48.154;11.514;2023-02-28T11:46:33;96280.38;;;1.09;56.99
20860;BME280;10590;48.154;11.514;2023-02-28T11:51:44;96273.81;;;1.28;56.86
20860;BME280;10590;48.154;11.514;2023-02-28T11:56:51;96257.25;;;1.45;55.99
20860;BME280;10590;48.154;11.514;2023-02-28T12:02:05;96264.06;;;2.23;55.29
20860;BME280;10590;48.154;11.514;2023-02-28T12:07:14;96266.00;;;2.11;54.52
20860;BME280;10590;48.154;11.514;2023-02-28T12:12:24;96246.91;;;3.75;52.51
20860;BME280;10590;48.154;11.514;2023-02-28T12:17:44;96245.16;;;2.04;55.30
20860;BME280;10590;48.154;11.514;2023-02-28T12:23:00;96238.25;;;2.25;54.33
20860;BME280;10590;48.154;11.514;2023-02-28T12:28:09;96228.19;;;2.17;53.67
20860;BME280;10590;48.154;11.514;2023-02-28T12:33:16;96239.78;;;1.39;55.48
20860;BME280;10590;48.154;11.514;2023-02-28T12:38:23;96230.25;;;3.70;51.81
20860;BME280;10590;48.154;11.514;2023-02-28T12:43:32;96224.13;;;3.59;50.56
20860;BME280;10590;48.154;11.514;2023-02-28T12:48:40;96230.41;;;1.81;55.79
20860;BME280;10590;48.154;11.514;2023-02-28T12:53:54;96221.69;;;3.10;53.09
20860;BME280;10590;48.154;11.514;2023-02-28T12:59:00;96221.50;;;3.59;51.61
20860;BME280;10590;48.154;11.514;2023-02-28T13:09:40;96210.81;;;2.70;52.77
20860;BME280;10590;48.154;11.514;2023-02-28T13:14:41;96212.50;;;4.23;49.36
20860;BME280;10590;48.154;11.514;2023-02-28T13:19:45;96206.03;;;4.96;48.12
20860;BME280;10590;48.154;11.514;2023-02-28T13:24:50;96215.16;;;4.28;48.57
20860;BME280;10590;48.154;11.514;2023-02-28T13:29:53;96217.91;;;4.58;48.34
20860;BME280;10590;48.154;11.514;2023-02-28T13:40:49;96202.00;;;4.43;48.11
20860;BME280;10590;48.154;11.514;2023-02-28T13:46:08;96220.72;;;3.27;50.83
20860;BME280;10590;48.154;11.514;2023-02-28T13:51:39;96216.69;;;3.51;52.09
20860;BME280;10590;48.154;11.514;2023-02-28T13:57:06;96219.88;;;2.30;53.31
20860;BME280;10590;48.154;11.514;2023-02-28T14:02:36;96219.72;;;3.33;52.73
20860;BME280;10590;48.154;11.514;2023-02-28T14:07:45;96221.13;;;2.22;54.39
20860;BME280;10590;48.154;11.514;2023-02-28T14:13:12;96206.25;;;2.11;55.26
20860;BME280;10590;48.154;11.514;2023-02-28T14:18:23;96203.53;;;2.28;55.06
20860;BME280;10590;48.154;11.514;2023-02-28T14:23:39;96218.75;;;2.75;54.13
20860;BME280;10590;48.154;11.514;2023-02-28T14:29:01;96219.72;;;2.15;54.94
20860;BME280;10590;48.154;11.514;2023-02-28T14:34:25;96213.88;;;2.08;55.50
20860;BME280;10590;48.154;11.514;2023-02-28T14:39:27;96219.94;;;2.35;55.12
20860;BME280;10590;48.154;11.514;2023-02-28T14:44:35;96217.03;;;2.10;56.02
20860;BME280;10590;48.154;11.514;2023-02-28T14:49:42;96215.31;;;2.47;55.45
20860;BME280;10590;48.154;11.514;2023-02-28T14:54:46;96215.00;;;2.17;54.99
20860;BME280;10590;48.154;11.514;2023-02-28T15:00:03;96222.69;;;2.45;54.87
20860;BME280;10590;48.154;11.514;2023-02-28T15:05:21;96208.38;;;2.36;55.07
20860;BME280;10590;48.154;11.514;2023-02-28T15:10:26;96202.31;;;2.36;55.19
20860;BME280;10590;48.154;11.514;2023-02-28T15:15:39;96191.06;;;2.18;55.54
20860;BME280;10590;48.154;11.514;2023-02-28T15:20:43;96208.34;;;2.09;55.92
20860;BME280;10590;48.154;11.514;2023-02-28T15:25:46;96209.50;;;2.45;54.93
20860;BME280;10590;48.154;11.514;2023-02-28T15:30:55;96218.53;;;2.54;55.13
20860;BME280;10590;48.154;11.514;2023-02-28T15:36:13;96222.09;;;2.65;55.90
20860;BME280;10590;48.154;11.514;2023-02-28T15:41:24;96217.66;;;2.71;55.31
20860;BME280;10590;48.154;11.514;2023-02-28T15:46:28;96209.31;;;2.52;56.78
20860;BME280;10590;48.154;11.514;2023-02-28T15:51:32;96217.25;;;2.30;56.38
20860;BME280;10590;48.154;11.514;2023-02-28T15:56:38;96217.84;;;2.10;56.48
20860;BME280;10590;48.154;11.514;2023-02-28T16:01:45;96229.81;;;2.72;56.47
20860;BME280;10590;48.154;11.514;2023-02-28T16:07:00;96229.75;;;2.67;56.15
20860;BME280;10590;48.154;11.514;2023-02-28T16:12:03;96226.41;;;2.49;57.10
20860;BME280;10590;48.154;11.514;2023-02-28T16:17:13;96233.13;;;2.13;57.17
20860;BME280;10590;48.154;11.514;2023-02-28T16:22:17;96227.56;;;2.10;58.92
20860;BME280;10590;48.154;11.514;2023-02-28T16:27:30;96222.19;;;2.00;58.05
20860;BME280;10590;48.154;11.514;2023-02-28T16:32:35;96238.03;;;1.83;58.01
20860;BME280;10590;48.154;11.514;2023-02-28T16:37:37;96232.16;;;1.76;58.19
20860;BME280;10590;48.154;11.514;2023-02-28T16:42:39;96233.91;;;1.70;58.87
20860;BME280;10590;48.154;11.514;2023-02-28T16:47:43;96250.09;;;1.79;58.85
20860;BME280;10590;48.154;11.514;2023-02-28T16:52:45;96247.66;;;1.55;60.45
20860;BME280;10590;48.154;11.514;2023-02-28T16:57:51;96251.63;;;1.58;59.95
20860;BME280;10590;48.154;11.514;2023-02-28T17:02:55;96248.75;;;1.59;60.20
20860;BME280;10590;48.154;11.514;2023-02-28T17:07:57;96262.56;;;1.50;59.85
20860;BME280;10590;48.154;11.514;2023-02-28T17:12:58;96263.13;;;1.52;60.37
20860;BME280;10590;48.154;11.514;2023-02-28T17:18:01;96273.41;;;1.53;60.42
20860;BME280;10590;48.154;11.514;2023-02-28T17:23:03;96275.66;;;1.45;60.41
20860;BME280;10590;48.154;11.514;2023-02-28T17:28:05;96280.41;;;1.48;60.68
20860;BME280;10590;48.154;11.514;2023-02-28T17:33:08;96280.19;;;1.49;61.04
20860;BME280;10590;48.154;11.514;2023-02-28T17:38:15;96291.56;;;1.55;61.15
20860;BME280;10590;48.154;11.514;2023-02-28T17:43:20;96291.16;;;1.63;60.23
20860;BME280;10590;48.154;11.514;2023-02-28T17:48:23;96289.25;;;1.75;60.39
20860;BME280;10590;48.154;11.514;2023-02-28T17:53:25;96277.94;;;1.58;60.81
20860;BME280;10590;48.154;11.514;2023-02-28T17:58:27;96279.72;;;1.36;61.29
20860;BME280;10590;48.154;11.514;2023-02-28T18:03:32;96285.91;;;1.63;61.44
20860;BME280;10590;48.154;11.514;2023-02-28T18:08:35;96285.03;;;1.57;61.42
20860;BME280;10590;48.154;11.514;2023-02-28T18:13:36;96279.53;;;1.76;61.13
20860;BME280;10590;48.154;11.514;2023-02-28T18:18:39;96274.41;;;1.69;61.95
20860;BME280;10590;48.154;11.514;2023-02-28T18:23:42;96281.91;;;1.77;62.12
20860;BME280;10590;48.154;11.514;2023-02-28T18:28:48;96269.34;;;1.46;62.40
20860;BME280;10590;48.154;11.514;2023-02-28T18:33:52;96277.59;;;1.71;61.80
20860;BME280;10590;48.154;11.514;2023-02-28T18:38:53;96285.97;;;1.68;61.34
20860;BME280;10590;48.154;11.514;2023-02-28T18:43:55;96283.78;;;1.43;62.68
20860;BME280;10590;48.154;11.514;2023-02-28T18:48:59;96277.94;;;1.58;62.25
20860;BME280;10590;48.154;11.514;2023-02-28T18:54:00;96284.44;;;1.72;61.19
20860;BME280;10590;48.154;11.514;2023-02-28T18:59:03;96277.94;;;1.58;62.12
20860;BME280;10590;48.154;11.514;2023-02-28T19:04:11;96273.63;;;1.52;62.30
20860;BME280;10590;48.154;11.514;2023-02-28T19:09:13;96284.16;;;1.52;61.56
20860;BME280;10590;48.154;11.514;2023-02-28T19:14:14;96258.91;;;1.51;61.47
20860;BME280;10590;48.154;11.514;2023-02-28T19:19:17;96258.06;;;1.28;62.33
20860;BME280;10590;48.154;11.514;2023-02-28T19:24:19;96280.09;;;1.61;62.64
20860;BME280;10590;48.154;11.514;2023-02-28T19:29:21;96271.88;;;1.57;62.63
20860;BME280;10590;48.154;11.514;2023-02-28T19:34:24;96294.44;;;1.53;62.80
20860;BME280;10590;48.154;11.514;2023-02-28T19:39:26;96285.06;;;1.41;62.84
20860;BME280;10590;48.154;11.514;2023-02-28T19:44:28;96282.91;;;1.38;63.34
20860;BME280;10590;48.154;11.514;2023-02-28T19:49:31;96280.34;;;1.43;63.87
20860;BME280;10590;48.154;11.514;2023-02-28T19:54:32;96286.91;;;1.07;64.03
20860;BME280;10590;48.154;11.514;2023-02-28T19:59:35;96269.06;;;1.09;64.77
20860;BME280;10590;48.154;11.514;2023-02-28T20:04:38;96256.47;;;0.94;65.10
20860;BME280;10590;48.154;11.514;2023-02-28T20:09:40;96270.97;;;1.13;65.04
20860;BME280;10590;48.154;11.514;2023-02-28T20:14:47;96256.22;;;0.95;65.88
20860;BME280;10590;48.154;11.514;2023-02-28T20:19:53;96240.63;;;1.06;66.04
20860;BME280;10590;48.154;11.514;2023-02-28T20:24:55;96274.47;;;1.19;65.09
20860;BME280;10590;48.154;11.514;2023-02-28T20:29:56;96267.94;;;1.21;65.27
20860;BME280;10590;48.154;11.514;2023-02-28T20:35:00;96267.06;;;1.16;65.41
20860;BME280;10590;48.154;11.514;2023-02-28T20:40:01;96274.31;;;1.09;65.92
20860;BME280;10590;48.154;11.514;2023-02-28T20:45:05;96263.97;;;1.02;66.64
20860;BME280;10590;48.154;11.514;2023-02-28T20:50:11;96273.84;;;1.12;67.22
20860;BME280;10590;48.154;11.514;2023-02-28T20:55:13;96261.56;;;1.17;66.09
20860;BME280;10590;48.154;11.514;2023-02-28T21:00:16;96260.50;;;0.85;65.86
20860;BME280;10590;48.154;11.514;2023-02-28T21:05:21;96272.78;;;0.96;66.77
20860;BME280;10590;48.154;11.514;2023-02-28T21:10:23;96262.22;;;1.08;66.48
20860;BME280;10590;48.154;11.514;2023-02-28T21:15:28;96270.41;;;0.94;66.45
20860;BME280;10590;48.154;11.514;2023-02-28T21:20:31;96261.44;;;0.79;67.02
20860;BME280;10590;48.154;11.514;2023-02-28T21:25:32;96261.28;;;0.85;66.75
20860;BME280;10590;48.154;11.514;2023-02-28T21:30:35;96261.72;;;0.94;66.99
20860;BME280;10590;48.154;11.514;2023-02-28T21:35:38;96260.88;;;0.77;67.90
20860;BME280;10590;48.154;11.514;2023-02-28T21:40:40;96247.72;;;1.05;66.11
20860;BME280;10590;48.154;11.514;2023-02-28T21:45:41;96254.22;;;0.86;67.16
20860;BME280;10590;48.154;11.514;2023-02-28T21:50:53;96249.69;;;0.98;66.94
20860;BME280;10590;48.154;11.514;2023-02-28T21:56:01;96245.91;;;0.60;67.99
20860;BME280;10590;48.154;11.514;2023-02-28T22:01:04;96237.97;;;0.72;67.11
20860;BME280;10590;48.154;11.514;2023-02-28T22:06:12;96251.69;;;0.91;67.22
20860;BME280;10590;48.154;11.514;2023-02-28T22:11:15;96254.84;;;0.76;67.77
20860;BME280;10590;48.154;11.514;2023-02-28T22:16:19;96250.38;;;0.77;67.66
20860;BME280;10590;48.154;11.514;2023-02-28T22:21:23;96254.63;;;0.49;67.20
20860;BME280;10590;48.154;11.514;2023-02-28T22:26:25;96243.56;;;0.47;68.01
20860;BME280;10590;48.154;11.514;2023-02-28T22:31:28;96253.06;;;0.65;67.64
20860;BME280;10590;48.154;11.514;2023-02-28T22:36:32;96236.50;;;0.48;67.88
20860;BME280;10590;48.154;11.514;2023-02-28T22:41:34;96255.75;;;0.53;68.03
20860;BME280;10590;48.154;11.514;2023-02-28T22:46:35;96232.97;;;0.42;68.65
20860;BME280;10590;48.154;11.514;2023-02-28T22:51:39;96247.88;;;0.53;68.17
20860;BME280;10590;48.154;11.514;2023-02-28T22:56:40;96239.19;;;0.36;67.97
20860;BME280;10590;48.154;11.514;2023-02-28T23:01:42;96242.41;;;0.26;68.84
20860;BME280;10590;48.154;11.514;2023-02-28T23:06:45;96244.59;;;0.46;68.15
20860;BME280;10590;48.154;11.514;2023-02-28T23:11:48;96233.13;;;0.36;68.79
20860;BME280;10590;48.154;11.514;2023-02-28T23:16:51;96251.69;;;0.46;68.69
20860;BME280;10590;48.154;11.514;2023-02-28T23:21:55;96239.66;;;0.33;68.48
20860;BME280;10590;48.154;11.514;2023-02-28T23:27:00;96240.16;;;0.47;68.46
20860;BME280;10590;48.154;11.514;2023-02-28T23:32:03;96249.47;;;0.54;69.31
20860;BME280;10590;48.154;11.514;2023-02-28T23:37:07;96238.88;;;0.49;68.67
20860;BME280;10590;48.154;11.514;2023-02-28T23:42:08;96241.75;;;0.48;68.44
20860;BME280;10590;48.154;11.514;2023-02-28T23:47:10;96239.66;;;0.33;69.35
20860;BME280;10590;48.154;11.514;2023-02-28T23:52:15;96227.66;;;0.37;68.72
20860;BME280;10590;48.154;11.514;2023-02-28T23:57:17;96224.16;;;0.48;68.37
